sensor_id;sensor_type;location;lat;lon;timestamp;temperature;humidity
1361;DHT22;674;45.552;-122.600;2023-05-16T00:01:44;31.40;1.00
1361;DHT22;674;45.552;-122.600;2023-05-16T00:04:13;31.30;1.00
1361;DHT22;674;45.552;-122.600;2023-05-16T00:06:42;31.10;1.00
1361;DHT22;674;45.552;-122.600;2023-05-16T00:09:10;30.90;1.00
1361;DHT22;674;45.552;-122.600;2023-05-16T00:11:38;31.00;1.00
1361;DHT22;674;45.552;-122.600;2023-05-16T00:14:07;31.00;1.00
1361;DHT22;674;45.552;-122.600;2023-05-16T00:16:35;30.80;1.00
1361;DHT22;674;45.552;-122.600;2023-05-16T00:19:03;30.60;1.00
1361;DHT22;674;45.552;-122.600;2023-05-16T00:21:33;30.50;1.00
1361;DHT22;674;45.552;-122.600;2023-05-16T00:24:02;30.30;1.00
1361;DHT22;674;45.552;-122.600;2023-05-16T00:26:30;30.40;1.00
1361;DHT22;674;45.552;-122.600;2023-05-16T00:28:59;30.30;1.00
1361;DHT22;674;45.552;-122.600;2023-05-16T00:31:27;30.10;1.00
1361;DHT22;674;45.552;-122.600;2023-05-16T00:33:56;29.90;1.00
1361;DHT22;674;45.552;-122.600;2023-05-16T00:36:24;29.90;1.00
1361;DHT22;674;45.552;-122.600;2023-05-16T00:38:52;30.00;1.00
1361;DHT22;674;45.552;-122.600;2023-05-16T00:41:21;29.90;1.00
1361;DHT22;674;45.552;-122.600;2023-05-16T00:43:50;29.90;1.00
1361;DHT22;674;45.552;-122.600;2023-05-16T00:46:18;29.70;1.00
1361;DHT22;674;45.552;-122.600;2023-05-16T00:48:47;29.60;1.00
1361;DHT22;674;45.552;-122.600;2023-05-16T00:51:16;29.00;1.00
1361;DHT22;674;45.552;-122.600;2023-05-16T00:53:44;28.20;1.00
1361;DHT22;674;45.552;-122.600;2023-05-16T00:56:13;27.70;1.00
1361;DHT22;674;45.552;-122.600;2023-05-16T00:58:41;27.20;1.00
1361;DHT22;674;45.552;-122.600;2023-05-16T01:01:10;26.60;1.00
1361;DHT22;674;45.552;-122.600;2023-05-16T01:03:39;26.30;1.00
1361;DHT22;674;45.552;-122.600;2023-05-16T01:06:09;26.20;1.00
1361;DHT22;674;45.552;-122.600;2023-05-16T01:08:39;26.00;1.00
1361;DHT22;674;45.552;-122.600;2023-05-16T01:11:37;25.20;1.00
1361;DHT22;674;45.552;-122.600;2023-05-16T01:20:32;24.70;1.00
1361;DHT22;674;45.552;-122.600;2023-05-16T01:28:26;24.70;1.00
1361;DHT22;674;45.552;-122.600;2023-05-16T01:30:55;24.60;1.00
1361;DHT22;674;45.552;-122.600;2023-05-16T01:33:23;24.50;1.00
1361;DHT22;674;45.552;-122.600;2023-05-16T01:44:24;23.70;1.00
1361;DHT22;674;45.552;-122.600;2023-05-16T01:46:57;23.60;1.00
1361;DHT22;674;45.552;-122.600;2023-05-16T01:52:13;23.40;1.00
1361;DHT22;674;45.552;-122.600;2023-05-16T01:54:44;23.50;1.00
1361;DHT22;674;45.552;-122.600;2023-05-16T01:57:15;23.40;1.00
1361;DHT22;674;45.552;-122.600;2023-05-16T01:59:45;23.40;1.00
1361;DHT22;674;45.552;-122.600;2023-05-16T02:02:17;23.10;1.00
1361;DHT22;674;45.552;-122.600;2023-05-16T02:04:46;22.90;1.00
1361;DHT22;674;45.552;-122.600;2023-05-16T02:07:14;22.70;1.00
1361;DHT22;674;45.552;-122.600;2023-05-16T02:09:43;22.40;29.70
1361;DHT22;674;45.552;-122.600;2023-05-16T02:12:11;22.40;1.30
1361;DHT22;674;45.552;-122.600;2023-05-16T02:14:40;22.30;8.70
1361;DHT22;674;45.552;-122.600;2023-05-16T02:17:08;22.40;20.50
1361;DHT22;674;45.552;-122.600;2023-05-16T02:19:37;22.30;41.50
1361;DHT22;674;45.552;-122.600;2023-05-16T02:22:05;22.30;24.90
1361;DHT22;674;45.552;-122.600;2023-05-16T02:24:33;22.10;39.70
1361;DHT22;674;45.552;-122.600;2023-05-16T02:27:02;21.90;49.10
1361;DHT22;674;45.552;-122.600;2023-05-16T02:29:30;21.90;40.50
1361;DHT22;674;45.552;-122.600;2023-05-16T02:31:58;21.70;44.40
1361;DHT22;674;45.552;-122.600;2023-05-16T02:34:27;21.70;44.90
1361;DHT22;674;45.552;-122.600;2023-05-16T02:36:55;21.70;62.90
1361;DHT22;674;45.552;-122.600;2023-05-16T02:39:24;21.50;40.50
1361;DHT22;674;45.552;-122.600;2023-05-16T02:41:54;21.20;39.70
1361;DHT22;674;45.552;-122.600;2023-05-16T02:44:22;21.20;47.90
1361;DHT22;674;45.552;-122.600;2023-05-16T02:46:51;21.20;51.60
1361;DHT22;674;45.552;-122.600;2023-05-16T02:49:22;21.00;28.70
1361;DHT22;674;45.552;-122.600;2023-05-16T02:51:51;20.80;33.30
1361;DHT22;674;45.552;-122.600;2023-05-16T02:54:19;20.90;49.90
1361;DHT22;674;45.552;-122.600;2023-05-16T02:56:48;20.90;77.00
1361;DHT22;674;45.552;-122.600;2023-05-16T02:59:16;20.80;64.00
1361;DHT22;674;45.552;-122.600;2023-05-16T03:01:45;20.80;64.10
1361;DHT22;674;45.552;-122.600;2023-05-16T03:04:13;20.90;51.50
1361;DHT22;674;45.552;-122.600;2023-05-16T03:06:42;20.90;46.90
1361;DHT22;674;45.552;-122.600;2023-05-16T03:09:10;20.50;36.00
1361;DHT22;674;45.552;-122.600;2023-05-16T03:11:38;20.60;63.90
1361;DHT22;674;45.552;-122.600;2023-05-16T03:14:07;20.50;68.80
1361;DHT22;674;45.552;-122.600;2023-05-16T03:16:36;20.30;76.80
1361;DHT22;674;45.552;-122.600;2023-05-16T03:19:05;20.40;70.20
1361;DHT22;674;45.552;-122.600;2023-05-16T03:21:34;20.30;34.10
1361;DHT22;674;45.552;-122.600;2023-05-16T03:24:03;20.20;38.70
1361;DHT22;674;45.552;-122.600;2023-05-16T03:26:31;20.10;1.00
1361;DHT22;674;45.552;-122.600;2023-05-16T03:29:00;20.00;1.00
1361;DHT22;674;45.552;-122.600;2023-05-16T03:31:31;19.80;1.00
1361;DHT22;674;45.552;-122.600;2023-05-16T03:34:00;19.80;11.30
1361;DHT22;674;45.552;-122.600;2023-05-16T03:36:28;19.80;1.00
1361;DHT22;674;45.552;-122.600;2023-05-16T03:38:57;19.70;1.00
1361;DHT22;674;45.552;-122.600;2023-05-16T03:41:25;19.60;1.00
1361;DHT22;674;45.552;-122.600;2023-05-16T03:43:54;19.40;1.00
1361;DHT22;674;45.552;-122.600;2023-05-16T03:46:22;19.40;1.30
1361;DHT22;674;45.552;-122.600;2023-05-16T03:48:51;19.40;6.40
1361;DHT22;674;45.552;-122.600;2023-05-16T03:51:19;19.50;1.00
1361;DHT22;674;45.552;-122.600;2023-05-16T03:53:48;19.40;5.50
1361;DHT22;674;45.552;-122.600;2023-05-16T03:56:16;19.30;9.00
1361;DHT22;674;45.552;-122.600;2023-05-16T03:58:45;19.30;1.50
1361;DHT22;674;45.552;-122.600;2023-05-16T04:01:13;19.40;1.00
1361;DHT22;674;45.552;-122.600;2023-05-16T04:03:42;19.30;1.00
1361;DHT22;674;45.552;-122.600;2023-05-16T04:06:10;19.40;1.00
1361;DHT22;674;45.552;-122.600;2023-05-16T04:08:39;19.30;1.00
1361;DHT22;674;45.552;-122.600;2023-05-16T04:11:07;19.40;1.00
1361;DHT22;674;45.552;-122.600;2023-05-16T04:13:36;19.40;1.00
1361;DHT22;674;45.552;-122.600;2023-05-16T04:16:05;19.40;1.00
1361;DHT22;674;45.552;-122.600;2023-05-16T04:18:34;19.30;1.00
1361;DHT22;674;45.552;-122.600;2023-05-16T04:21:02;19.40;1.00
1361;DHT22;674;45.552;-122.600;2023-05-16T04:23:31;19.40;1.00
1361;DHT22;674;45.552;-122.600;2023-05-16T04:25:59;19.40;1.00
1361;DHT22;674;45.552;-122.600;2023-05-16T04:28:28;19.30;1.00
1361;DHT22;674;45.552;-122.600;2023-05-16T04:30:57;19.40;1.00
1361;DHT22;674;45.552;-122.600;2023-05-16T04:33:25;19.30;1.00
1361;DHT22;674;45.552;-122.600;2023-05-16T04:35:53;19.20;1.00
1361;DHT22;674;45.552;-122.600;2023-05-16T04:38:22;19.20;1.00
1361;DHT22;674;45.552;-122.600;2023-05-16T04:40:50;19.20;1.00
1361;DHT22;674;45.552;-122.600;2023-05-16T04:43:19;19.20;1.00
1361;DHT22;674;45.552;-122.600;2023-05-16T04:45:48;19.20;1.00
1361;DHT22;674;45.552;-122.600;2023-05-16T04:48:17;19.00;1.00
1361;DHT22;674;45.552;-122.600;2023-05-16T04:50:45;19.00;1.00
1361;DHT22;674;45.552;-122.600;2023-05-16T04:53:14;19.00;1.00
1361;DHT22;674;45.552;-122.600;2023-05-16T04:55:42;18.90;1.00
1361;DHT22;674;45.552;-122.600;2023-05-16T04:58:10;19.00;1.00
1361;DHT22;674;45.552;-122.600;2023-05-16T05:00:39;18.90;1.00
1361;DHT22;674;45.552;-122.600;2023-05-16T05:03:07;18.80;1.00
1361;DHT22;674;45.552;-122.600;2023-05-16T05:05:36;18.80;1.00
1361;DHT22;674;45.552;-122.600;2023-05-16T05:08:04;18.80;1.00
1361;DHT22;674;45.552;-122.600;2023-05-16T05:10:34;18.50;1.00
1361;DHT22;674;45.552;-122.600;2023-05-16T05:13:02;18.40;1.00
1361;DHT22;674;45.552;-122.600;2023-05-16T05:15:31;18.40;1.00
1361;DHT22;674;45.552;-122.600;2023-05-16T05:17:59;18.20;1.00
1361;DHT22;674;45.552;-122.600;2023-05-16T05:20:28;18.20;1.00
1361;DHT22;674;45.552;-122.600;2023-05-16T05:22:56;18.20;1.00
1361;DHT22;674;45.552;-122.600;2023-05-16T05:25:25;18.30;1.00
1361;DHT22;674;45.552;-122.600;2023-05-16T05:27:54;18.10;1.00
1361;DHT22;674;45.552;-122.600;2023-05-16T05:30:22;18.10;1.00
1361;DHT22;674;45.552;-122.600;2023-05-16T05:32:51;18.10;1.00
1361;DHT22;674;45.552;-122.600;2023-05-16T05:35:20;18.10;1.00
1361;DHT22;674;45.552;-122.600;2023-05-16T05:37:48;18.10;1.00
1361;DHT22;674;45.552;-122.600;2023-05-16T05:40:17;18.00;1.00
1361;DHT22;674;45.552;-122.600;2023-05-16T05:42:45;18.00;1.00
1361;DHT22;674;45.552;-122.600;2023-05-16T05:45:14;18.00;1.00
1361;DHT22;674;45.552;-122.600;2023-05-16T05:47:43;17.80;1.00
1361;DHT22;674;45.552;-122.600;2023-05-16T05:50:11;17.90;1.00
1361;DHT22;674;45.552;-122.600;2023-05-16T05:52:41;17.80;1.00
1361;DHT22;674;45.552;-122.600;2023-05-16T05:55:09;17.90;1.00
1361;DHT22;674;45.552;-122.600;2023-05-16T05:57:37;17.80;1.00
1361;DHT22;674;45.552;-122.600;2023-05-16T06:00:06;17.70;1.00
1361;DHT22;674;45.552;-122.600;2023-05-16T06:02:35;17.60;1.00
1361;DHT22;674;45.552;-122.600;2023-05-16T06:05:04;17.60;1.00
1361;DHT22;674;45.552;-122.600;2023-05-16T06:07:32;17.60;1.00
1361;DHT22;674;45.552;-122.600;2023-05-16T06:10:00;17.70;1.00
1361;DHT22;674;45.552;-122.600;2023-05-16T06:12:31;17.70;1.00
1361;DHT22;674;45.552;-122.600;2023-05-16T06:14:59;17.70;1.00
1361;DHT22;674;45.552;-122.600;2023-05-16T06:17:28;17.70;1.00
1361;DHT22;674;45.552;-122.600;2023-05-16T06:19:56;17.70;1.00
1361;DHT22;674;45.552;-122.600;2023-05-16T06:22:24;17.70;1.00
1361;DHT22;674;45.552;-122.600;2023-05-16T06:24:53;17.80;1.00
1361;DHT22;674;45.552;-122.600;2023-05-16T06:27:21;17.90;1.00
1361;DHT22;674;45.552;-122.600;2023-05-16T06:29:49;17.80;1.00
1361;DHT22;674;45.552;-122.600;2023-05-16T06:32:18;17.90;1.00
1361;DHT22;674;45.552;-122.600;2023-05-16T06:34:47;17.70;1.00
1361;DHT22;674;45.552;-122.600;2023-05-16T06:37:15;17.70;1.00
1361;DHT22;674;45.552;-122.600;2023-05-16T06:39:44;17.70;1.00
1361;DHT22;674;45.552;-122.600;2023-05-16T06:42:12;17.70;1.00
1361;DHT22;674;45.552;-122.600;2023-05-16T06:44:41;17.80;1.00
1361;DHT22;674;45.552;-122.600;2023-05-16T06:47:09;17.70;1.00
1361;DHT22;674;45.552;-122.600;2023-05-16T06:49:39;17.60;1.00
1361;DHT22;674;45.552;-122.600;2023-05-16T06:52:07;17.60;1.00
1361;DHT22;674;45.552;-122.600;2023-05-16T06:54:36;17.40;1.00
1361;DHT22;674;45.552;-122.600;2023-05-16T06:57:04;17.40;1.00
1361;DHT22;674;45.552;-122.600;2023-05-16T06:59:34;17.40;1.00
1361;DHT22;674;45.552;-122.600;2023-05-16T07:02:03;17.20;1.00
1361;DHT22;674;45.552;-122.600;2023-05-16T07:04:32;17.30;1.00
1361;DHT22;674;45.552;-122.600;2023-05-16T07:07:03;17.30;1.00
1361;DHT22;674;45.552;-122.600;2023-05-16T07:09:34;17.10;1.00
1361;DHT22;674;45.552;-122.600;2023-05-16T07:12:03;17.10;1.00
1361;DHT22;674;45.552;-122.600;2023-05-16T07:14:31;17.10;1.00
1361;DHT22;674;45.552;-122.600;2023-05-16T07:17:00;17.20;1.00
1361;DHT22;674;45.552;-122.600;2023-05-16T07:19:29;17.20;1.00
1361;DHT22;674;45.552;-122.600;2023-05-16T07:21:57;17.20;1.00
1361;DHT22;674;45.552;-122.600;2023-05-16T07:24:25;17.20;1.00
1361;DHT22;674;45.552;-122.600;2023-05-16T07:26:54;17.20;1.00
1361;DHT22;674;45.552;-122.600;2023-05-16T07:29:22;17.30;1.00
1361;DHT22;674;45.552;-122.600;2023-05-16T07:31:50;17.30;1.00
1361;DHT22;674;45.552;-122.600;2023-05-16T07:34:19;17.40;1.00
1361;DHT22;674;45.552;-122.600;2023-05-16T07:36:48;17.40;1.00
1361;DHT22;674;45.552;-122.600;2023-05-16T07:39:16;17.40;1.00
1361;DHT22;674;45.552;-122.600;2023-05-16T07:41:44;17.30;1.00
1361;DHT22;674;45.552;-122.600;2023-05-16T07:44:13;17.40;1.00
1361;DHT22;674;45.552;-122.600;2023-05-16T07:46:41;17.50;1.00
1361;DHT22;674;45.552;-122.600;2023-05-16T07:49:11;17.50;1.00
1361;DHT22;674;45.552;-122.600;2023-05-16T07:51:40;17.60;1.00
1361;DHT22;674;45.552;-122.600;2023-05-16T07:54:08;17.60;1.00
1361;DHT22;674;45.552;-122.600;2023-05-16T07:56:37;17.60;1.00
1361;DHT22;674;45.552;-122.600;2023-05-16T07:59:05;17.60;1.00
1361;DHT22;674;45.552;-122.600;2023-05-16T08:01:33;17.60;1.00
1361;DHT22;674;45.552;-122.600;2023-05-16T08:04:02;17.50;1.00
1361;DHT22;674;45.552;-122.600;2023-05-16T08:06:30;17.50;1.00
1361;DHT22;674;45.552;-122.600;2023-05-16T08:08:59;17.60;1.00
1361;DHT22;674;45.552;-122.600;2023-05-16T08:11:28;17.70;1.00
1361;DHT22;674;45.552;-122.600;2023-05-16T08:13:56;17.70;1.00
1361;DHT22;674;45.552;-122.600;2023-05-16T08:16:24;17.70;1.00
1361;DHT22;674;45.552;-122.600;2023-05-16T08:18:53;17.60;1.00
1361;DHT22;674;45.552;-122.600;2023-05-16T08:21:22;17.60;1.00
1361;DHT22;674;45.552;-122.600;2023-05-16T08:23:50;17.70;1.00
1361;DHT22;674;45.552;-122.600;2023-05-16T08:26:21;17.80;1.00
1361;DHT22;674;45.552;-122.600;2023-05-16T08:28:49;17.80;1.00
1361;DHT22;674;45.552;-122.600;2023-05-16T08:31:18;17.70;1.00
1361;DHT22;674;45.552;-122.600;2023-05-16T08:33:46;17.80;1.00
1361;DHT22;674;45.552;-122.600;2023-05-16T08:36:16;17.60;1.00
1361;DHT22;674;45.552;-122.600;2023-05-16T08:38:48;17.60;1.00
1361;DHT22;674;45.552;-122.600;2023-05-16T08:41:17;17.70;1.00
1361;DHT22;674;45.552;-122.600;2023-05-16T08:43:45;17.60;1.00
1361;DHT22;674;45.552;-122.600;2023-05-16T08:46:13;17.70;1.00
1361;DHT22;674;45.552;-122.600;2023-05-16T08:48:45;17.60;1.00
1361;DHT22;674;45.552;-122.600;2023-05-16T08:51:16;17.70;1.00
1361;DHT22;674;45.552;-122.600;2023-05-16T08:53:53;17.70;1.00
1361;DHT22;674;45.552;-122.600;2023-05-16T08:56:25;17.80;1.00
1361;DHT22;674;45.552;-122.600;2023-05-16T08:58:55;17.80;1.00
1361;DHT22;674;45.552;-122.600;2023-05-16T09:01:24;17.80;1.00
1361;DHT22;674;45.552;-122.600;2023-05-16T09:03:54;17.80;1.00
1361;DHT22;674;45.552;-122.600;2023-05-16T09:06:23;17.90;1.00
1361;DHT22;674;45.552;-122.600;2023-05-16T09:08:53;17.80;1.00
1361;DHT22;674;45.552;-122.600;2023-05-16T09:11:22;17.60;1.00
1361;DHT22;674;45.552;-122.600;2023-05-16T09:13:50;17.50;1.00
1361;DHT22;674;45.552;-122.600;2023-05-16T09:16:19;17.40;1.00
1361;DHT22;674;45.552;-122.600;2023-05-16T09:18:59;17.30;1.00
1361;DHT22;674;45.552;-122.600;2023-05-16T09:21:31;17.30;1.00
1361;DHT22;674;45.552;-122.600;2023-05-16T09:24:09;17.30;1.00
1361;DHT22;674;45.552;-122.600;2023-05-16T09:26:38;17.20;1.00
1361;DHT22;674;45.552;-122.600;2023-05-16T09:29:11;17.30;1.00
1361;DHT22;674;45.552;-122.600;2023-05-16T09:31:39;17.20;1.00
1361;DHT22;674;45.552;-122.600;2023-05-16T09:34:08;17.30;1.00
1361;DHT22;674;45.552;-122.600;2023-05-16T09:36:39;17.30;1.00
1361;DHT22;674;45.552;-122.600;2023-05-16T09:39:10;17.20;1.00
1361;DHT22;674;45.552;-122.600;2023-05-16T09:41:42;17.10;1.00
1361;DHT22;674;45.552;-122.600;2023-05-16T09:44:11;17.10;1.00
1361;DHT22;674;45.552;-122.600;2023-05-16T09:46:39;17.10;1.00
1361;DHT22;674;45.552;-122.600;2023-05-16T09:49:11;17.20;1.00
1361;DHT22;674;45.552;-122.600;2023-05-16T09:51:40;17.20;1.00
1361;DHT22;674;45.552;-122.600;2023-05-16T09:54:09;17.30;1.00
1361;DHT22;674;45.552;-122.600;2023-05-16T09:56:49;17.30;1.00
1361;DHT22;674;45.552;-122.600;2023-05-16T09:59:18;17.30;1.00
1361;DHT22;674;45.552;-122.600;2023-05-16T10:01:48;17.40;1.00
1361;DHT22;674;45.552;-122.600;2023-05-16T10:04:18;17.30;1.00
1361;DHT22;674;45.552;-122.600;2023-05-16T10:06:47;17.30;1.00
1361;DHT22;674;45.552;-122.600;2023-05-16T10:09:17;17.30;1.00
1361;DHT22;674;45.552;-122.600;2023-05-16T10:11:47;17.40;1.00
1361;DHT22;674;45.552;-122.600;2023-05-16T10:14:17;17.40;1.00
1361;DHT22;674;45.552;-122.600;2023-05-16T10:16:47;17.30;1.00
1361;DHT22;674;45.552;-122.600;2023-05-16T10:19:19;17.10;1.00
1361;DHT22;674;45.552;-122.600;2023-05-16T10:21:52;17.30;1.00
1361;DHT22;674;45.552;-122.600;2023-05-16T10:24:36;17.30;1.00
1361;DHT22;674;45.552;-122.600;2023-05-16T10:27:06;17.40;1.00
1361;DHT22;674;45.552;-122.600;2023-05-16T10:29:37;17.40;1.00
1361;DHT22;674;45.552;-122.600;2023-05-16T10:32:22;17.40;1.00
1361;DHT22;674;45.552;-122.600;2023-05-16T10:34:52;17.40;1.00
1361;DHT22;674;45.552;-122.600;2023-05-16T10:37:23;17.00;1.00
1361;DHT22;674;45.552;-122.600;2023-05-16T10:39:52;16.90;1.00
1361;DHT22;674;45.552;-122.600;2023-05-16T10:42:21;16.90;1.00
1361;DHT22;674;45.552;-122.600;2023-05-16T10:44:53;16.80;1.00
1361;DHT22;674;45.552;-122.600;2023-05-16T10:47:32;16.90;1.00
1361;DHT22;674;45.552;-122.600;2023-05-16T10:50:01;16.80;1.00
1361;DHT22;674;45.552;-122.600;2023-05-16T10:52:33;16.70;1.00
1361;DHT22;674;45.552;-122.600;2023-05-16T10:55:03;16.80;1.00
1361;DHT22;674;45.552;-122.600;2023-05-16T10:57:32;16.90;1.00
1361;DHT22;674;45.552;-122.600;2023-05-16T11:00:06;16.90;1.00
1361;DHT22;674;45.552;-122.600;2023-05-16T11:02:40;16.80;1.00
1361;DHT22;674;45.552;-122.600;2023-05-16T11:05:16;16.90;1.00
1361;DHT22;674;45.552;-122.600;2023-05-16T11:08:04;16.90;1.00
1361;DHT22;674;45.552;-122.600;2023-05-16T11:10:33;16.90;1.00
1361;DHT22;674;45.552;-122.600;2023-05-16T11:13:06;17.00;1.00
1361;DHT22;674;45.552;-122.600;2023-05-16T11:15:34;16.90;1.00
1361;DHT22;674;45.552;-122.600;2023-05-16T11:18:13;16.80;1.00
1361;DHT22;674;45.552;-122.600;2023-05-16T11:20:42;16.80;1.00
1361;DHT22;674;45.552;-122.600;2023-05-16T11:23:23;16.80;1.00
1361;DHT22;674;45.552;-122.600;2023-05-16T11:25:57;16.70;1.00
1361;DHT22;674;45.552;-122.600;2023-05-16T11:28:27;16.40;1.00
1361;DHT22;674;45.552;-122.600;2023-05-16T11:30:58;16.50;1.00
1361;DHT22;674;45.552;-122.600;2023-05-16T11:33:26;16.50;1.00
1361;DHT22;674;45.552;-122.600;2023-05-16T11:36:08;16.40;1.00
1361;DHT22;674;45.552;-122.600;2023-05-16T11:38:42;16.50;1.00
1361;DHT22;674;45.552;-122.600;2023-05-16T11:41:11;16.50;1.00
1361;DHT22;674;45.552;-122.600;2023-05-16T11:43:43;16.40;1.00
1361;DHT22;674;45.552;-122.600;2023-05-16T11:46:14;16.20;1.00
1361;DHT22;674;45.552;-122.600;2023-05-16T11:48:43;16.10;3.40
1361;DHT22;674;45.552;-122.600;2023-05-16T11:51:16;16.20;4.10
1361;DHT22;674;45.552;-122.600;2023-05-16T11:53:48;16.10;3.80
1361;DHT22;674;45.552;-122.600;2023-05-16T11:56:17;16.00;8.00
1361;DHT22;674;45.552;-122.600;2023-05-16T11:58:49;16.00;7.60
1361;DHT22;674;45.552;-122.600;2023-05-16T12:01:17;15.80;12.60
1361;DHT22;674;45.552;-122.600;2023-05-16T12:03:56;15.90;10.60
1361;DHT22;674;45.552;-122.600;2023-05-16T12:06:25;15.80;18.90
1361;DHT22;674;45.552;-122.600;2023-05-16T12:08:53;15.80;17.60
1361;DHT22;674;45.552;-122.600;2023-05-16T12:11:23;15.80;21.00
1361;DHT22;674;45.552;-122.600;2023-05-16T12:13:51;15.80;23.60
1361;DHT22;674;45.552;-122.600;2023-05-16T12:16:20;15.90;19.80
1361;DHT22;674;45.552;-122.600;2023-05-16T12:18:49;15.90;20.70
1361;DHT22;674;45.552;-122.600;2023-05-16T12:21:17;15.80;14.70
1361;DHT22;674;45.552;-122.600;2023-05-16T12:23:46;15.70;25.70
1361;DHT22;674;45.552;-122.600;2023-05-16T12:26:14;15.70;33.40
1361;DHT22;674;45.552;-122.600;2023-05-16T12:28:43;15.60;38.00
1361;DHT22;674;45.552;-122.600;2023-05-16T12:31:19;15.70;46.90
1361;DHT22;674;45.552;-122.600;2023-05-16T12:33:52;15.60;48.50
1361;DHT22;674;45.552;-122.600;2023-05-16T12:36:24;15.60;43.10
1361;DHT22;674;45.552;-122.600;2023-05-16T12:38:53;15.60;48.80
1361;DHT22;674;45.552;-122.600;2023-05-16T12:41:22;15.50;50.40
1361;DHT22;674;45.552;-122.600;2023-05-16T12:43:50;15.40;62.30
1361;DHT22;674;45.552;-122.600;2023-05-16T12:46:33;15.30;70.70
1361;DHT22;674;45.552;-122.600;2023-05-16T12:49:02;15.40;71.60
1361;DHT22;674;45.552;-122.600;2023-05-16T12:51:32;15.50;70.20
1361;DHT22;674;45.552;-122.600;2023-05-16T12:54:09;15.60;66.40
1361;DHT22;674;45.552;-122.600;2023-05-16T12:56:39;15.60;67.90
1361;DHT22;674;45.552;-122.600;2023-05-16T12:59:08;15.60;72.60
1361;DHT22;674;45.552;-122.600;2023-05-16T13:01:37;15.60;70.40
1361;DHT22;674;45.552;-122.600;2023-05-16T13:04:07;15.60;76.40
1361;DHT22;674;45.552;-122.600;2023-05-16T13:06:36;15.70;76.70
1361;DHT22;674;45.552;-122.600;2023-05-16T13:09:24;15.60;69.80
1361;DHT22;674;45.552;-122.600;2023-05-16T13:11:57;15.80;73.80
1361;DHT22;674;45.552;-122.600;2023-05-16T13:14:25;15.90;64.90
1361;DHT22;674;45.552;-122.600;2023-05-16T13:16:54;15.90;65.70
1361;DHT22;674;45.552;-122.600;2023-05-16T13:19:22;15.80;63.10
1361;DHT22;674;45.552;-122.600;2023-05-16T13:21:51;16.10;63.10
1361;DHT22;674;45.552;-122.600;2023-05-16T13:24:19;16.20;60.40
1361;DHT22;674;45.552;-122.600;2023-05-16T13:26:48;16.30;50.60
1361;DHT22;674;45.552;-122.600;2023-05-16T13:29:16;16.50;31.60
1361;DHT22;674;45.552;-122.600;2023-05-16T13:31:45;16.60;35.10
1361;DHT22;674;45.552;-122.600;2023-05-16T13:34:13;16.60;21.30
1361;DHT22;674;45.552;-122.600;2023-05-16T13:36:42;16.80;20.30
1361;DHT22;674;45.552;-122.600;2023-05-16T13:39:20;16.60;11.10
1361;DHT22;674;45.552;-122.600;2023-05-16T13:41:49;16.80;17.90
1361;DHT22;674;45.552;-122.600;2023-05-16T13:44:18;17.10;19.70
1361;DHT22;674;45.552;-122.600;2023-05-16T13:46:47;17.20;1.00
1361;DHT22;674;45.552;-122.600;2023-05-16T13:49:15;17.10;1.00
1361;DHT22;674;45.552;-122.600;2023-05-16T13:51:44;17.10;1.00
1361;DHT22;674;45.552;-122.600;2023-05-16T13:54:12;17.20;1.00
1361;DHT22;674;45.552;-122.600;2023-05-16T13:56:41;17.30;1.00
1361;DHT22;674;45.552;-122.600;2023-05-16T13:59:09;17.50;1.00
1361;DHT22;674;45.552;-122.600;2023-05-16T14:01:46;17.30;1.00
1361;DHT22;674;45.552;-122.600;2023-05-16T14:04:15;17.30;1.00
1361;DHT22;674;45.552;-122.600;2023-05-16T14:06:44;17.50;1.00
1361;DHT22;674;45.552;-122.600;2023-05-16T14:09:12;17.70;1.00
1361;DHT22;674;45.552;-122.600;2023-05-16T14:11:42;18.00;1.00
1361;DHT22;674;45.552;-122.600;2023-05-16T14:14:10;18.00;1.00
1361;DHT22;674;45.552;-122.600;2023-05-16T14:16:38;18.00;1.00
1361;DHT22;674;45.552;-122.600;2023-05-16T14:19:12;17.80;1.00
1361;DHT22;674;45.552;-122.600;2023-05-16T14:21:45;17.70;1.00
1361;DHT22;674;45.552;-122.600;2023-05-16T14:24:13;17.60;1.00
1361;DHT22;674;45.552;-122.600;2023-05-16T14:26:42;17.60;1.00
1361;DHT22;674;45.552;-122.600;2023-05-16T14:29:10;17.50;1.00
1361;DHT22;674;45.552;-122.600;2023-05-16T14:31:39;17.60;1.00
1361;DHT22;674;45.552;-122.600;2023-05-16T14:34:08;17.50;1.00
1361;DHT22;674;45.552;-122.600;2023-05-16T14:36:36;17.40;1.00
1361;DHT22;674;45.552;-122.600;2023-05-16T14:39:05;17.60;1.00
1361;DHT22;674;45.552;-122.600;2023-05-16T14:41:34;17.60;1.00
1361;DHT22;674;45.552;-122.600;2023-05-16T14:44:03;17.60;1.00
1361;DHT22;674;45.552;-122.600;2023-05-16T14:46:31;17.50;1.00
1361;DHT22;674;45.552;-122.600;2023-05-16T14:49:00;17.60;1.00
1361;DHT22;674;45.552;-122.600;2023-05-16T14:51:29;17.60;1.00
1361;DHT22;674;45.552;-122.600;2023-05-16T14:53:58;17.70;1.00
1361;DHT22;674;45.552;-122.600;2023-05-16T14:56:27;17.70;1.00
1361;DHT22;674;45.552;-122.600;2023-05-16T14:58:55;17.90;1.00
1361;DHT22;674;45.552;-122.600;2023-05-16T15:01:24;18.10;1.00
1361;DHT22;674;45.552;-122.600;2023-05-16T15:03:52;17.80;1.00
1361;DHT22;674;45.552;-122.600;2023-05-16T15:06:23;18.00;1.00
1361;DHT22;674;45.552;-122.600;2023-05-16T15:08:52;17.90;1.00
1361;DHT22;674;45.552;-122.600;2023-05-16T15:11:21;18.30;1.00
1361;DHT22;674;45.552;-122.600;2023-05-16T15:13:50;18.20;1.00
1361;DHT22;674;45.552;-122.600;2023-05-16T15:16:18;18.20;1.00
1361;DHT22;674;45.552;-122.600;2023-05-16T15:18:47;18.40;1.00
1361;DHT22;674;45.552;-122.600;2023-05-16T15:21:15;18.60;1.00
1361;DHT22;674;45.552;-122.600;2023-05-16T15:23:44;17.80;1.00
1361;DHT22;674;45.552;-122.600;2023-05-16T15:26:13;17.80;1.00
1361;DHT22;674;45.552;-122.600;2023-05-16T15:28:41;17.70;1.00
1361;DHT22;674;45.552;-122.600;2023-05-16T15:31:10;17.60;1.00
1361;DHT22;674;45.552;-122.600;2023-05-16T15:33:38;17.80;1.00
1361;DHT22;674;45.552;-122.600;2023-05-16T15:36:07;17.70;1.00
1361;DHT22;674;45.552;-122.600;2023-05-16T15:38:35;17.80;1.00
1361;DHT22;674;45.552;-122.600;2023-05-16T15:41:04;17.80;1.00
1361;DHT22;674;45.552;-122.600;2023-05-16T15:43:53;18.40;1.00
1361;DHT22;674;45.552;-122.600;2023-05-16T15:46:21;19.40;1.00
1361;DHT22;674;45.552;-122.600;2023-05-16T15:48:49;20.30;1.00
1361;DHT22;674;45.552;-122.600;2023-05-16T15:51:18;21.30;1.00
1361;DHT22;674;45.552;-122.600;2023-05-16T15:53:47;22.50;1.00
1361;DHT22;674;45.552;-122.600;2023-05-16T15:56:15;24.20;1.00
1361;DHT22;674;45.552;-122.600;2023-05-16T15:58:43;25.60;1.00
1361;DHT22;674;45.552;-122.600;2023-05-16T16:01:13;26.10;1.00
1361;DHT22;674;45.552;-122.600;2023-05-16T16:03:43;26.80;1.00
1361;DHT22;674;45.552;-122.600;2023-05-16T16:06:11;27.20;1.00
1361;DHT22;674;45.552;-122.600;2023-05-16T16:08:40;29.00;1.00
1361;DHT22;674;45.552;-122.600;2023-05-16T16:11:08;29.00;1.00
1361;DHT22;674;45.552;-122.600;2023-05-16T16:13:37;30.70;1.00
1361;DHT22;674;45.552;-122.600;2023-05-16T16:16:05;31.20;1.00
1361;DHT22;674;45.552;-122.600;2023-05-16T16:18:34;32.00;1.00
1361;DHT22;674;45.552;-122.600;2023-05-16T16:21:02;32.40;1.00